sensor_id;sensor_type;location;lat;lon;timestamp;P1;durP1;ratioP1;P2;durP2;ratioP2
53927;SDS011;39837;47.630;18.822;2022-10-16T00:01:11;4.40;;;4.00;;
53927;SDS011;39837;47.630;18.822;2022-10-16T00:03:57;6.38;;;4.00;;
53927;SDS011;39837;47.630;18.822;2022-10-16T00:09:26;5.03;;;4.53;;
53927;SDS011;39837;47.630;18.822;2022-10-16T00:12:10;4.57;;;4.13;;
53927;SDS011;39837;47.630;18.822;2022-10-16T00:14:54;4.20;;;3.90;;
53927;SDS011;39837;47.630;18.822;2022-10-16T00:17:37;8.35;;;4.45;;
53927;SDS011;39837;47.630;18.822;2022-10-16T00:20:21;7.93;;;4.72;;
53927;SDS011;39837;47.630;18.822;2022-10-16T00:23:05;7.88;;;4.75;;
53927;SDS011;39837;47.630;18.822;2022-10-16T00:25:56;4.05;;;3.70;;
53927;SDS011;39837;47.630;18.822;2022-10-16T00:28:41;5.10;;;4.60;;
53927;SDS011;39837;47.630;18.822;2022-10-16T00:31:25;5.28;;;4.18;;
53927;SDS011;39837;47.630;18.822;2022-10-16T00:34:09;4.65;;;4.18;;
53927;SDS011;39837;47.630;18.822;2022-10-16T00:36:53;5.05;;;4.10;;
53927;SDS011;39837;47.630;18.822;2022-10-16T00:39:37;5.25;;;4.03;;
53927;SDS011;39837;47.630;18.822;2022-10-16T00:42:21;8.77;;;4.65;;
53927;SDS011;39837;47.630;18.822;2022-10-16T00:45:06;12.10;;;4.97;;
53927;SDS011;39837;47.630;18.822;2022-10-16T00:47:52;5.32;;;4.05;;
53927;SDS011;39837;47.630;18.822;2022-10-16T00:50:37;6.47;;;4.22;;
53927;SDS011;39837;47.630;18.822;2022-10-16T00:53:22;5.72;;;4.68;;
53927;SDS011;39837;47.630;18.822;2022-10-16T00:56:07;6.22;;;4.25;;
53927;SDS011;39837;47.630;18.822;2022-10-16T00:58:51;7.05;;;5.40;;
53927;SDS011;39837;47.630;18.822;2022-10-16T01:01:35;15.32;;;5.40;;
53927;SDS011;39837;47.630;18.822;2022-10-16T01:04:19;6.30;;;4.40;;
53927;SDS011;39837;47.630;18.822;2022-10-16T01:13:55;5.20;;;4.50;;
53927;SDS011;39837;47.630;18.822;2022-10-16T01:16:48;5.43;;;4.53;;
53927;SDS011;39837;47.630;18.822;2022-10-16T01:19:44;7.07;;;5.70;;
53927;SDS011;39837;47.630;18.822;2022-10-16T01:22:38;9.15;;;4.97;;
53927;SDS011;39837;47.630;18.822;2022-10-16T01:28:34;13.35;;;5.53;;
53927;SDS011;39837;47.630;18.822;2022-10-16T01:31:27;5.63;;;4.55;;
53927;SDS011;39837;47.630;18.822;2022-10-16T01:34:18;6.80;;;4.88;;
53927;SDS011;39837;47.630;18.822;2022-10-16T01:37:09;12.95;;;5.15;;
53927;SDS011;39837;47.630;18.822;2022-10-16T01:39:57;6.18;;;4.85;;
53927;SDS011;39837;47.630;18.822;2022-10-16T01:42:44;5.28;;;4.68;;
53927;SDS011;39837;47.630;18.822;2022-10-16T01:45:30;5.47;;;4.63;;
53927;SDS011;39837;47.630;18.822;2022-10-16T01:48:17;6.78;;;5.40;;
53927;SDS011;39837;47.630;18.822;2022-10-16T01:51:14;6.57;;;5.03;;
53927;SDS011;39837;47.630;18.822;2022-10-16T01:53:59;6.30;;;5.38;;
53927;SDS011;39837;47.630;18.822;2022-10-16T01:56:44;8.30;;;5.78;;
53927;SDS011;39837;47.630;18.822;2022-10-16T01:59:30;5.90;;;5.10;;
53927;SDS011;39837;47.630;18.822;2022-10-16T02:02:15;11.23;;;5.80;;
53927;SDS011;39837;47.630;18.822;2022-10-16T02:05:03;6.63;;;5.63;;
53927;SDS011;39837;47.630;18.822;2022-10-16T02:07:50;6.38;;;4.43;;
53927;SDS011;39837;47.630;18.822;2022-10-16T02:10:34;7.72;;;5.57;;
53927;SDS011;39837;47.630;18.822;2022-10-16T02:13:36;6.03;;;5.30;;
53927;SDS011;39837;47.630;18.822;2022-10-16T02:16:23;12.50;;;6.00;;
53927;SDS011;39837;47.630;18.822;2022-10-16T02:19:19;7.85;;;5.10;;
53927;SDS011;39837;47.630;18.822;2022-10-16T02:22:04;7.35;;;5.13;;
53927;SDS011;39837;47.630;18.822;2022-10-16T02:28:09;5.35;;;4.78;;
53927;SDS011;39837;47.630;18.822;2022-10-16T02:31:03;9.73;;;4.85;;
53927;SDS011;39837;47.630;18.822;2022-10-16T02:33:48;5.43;;;4.82;;
53927;SDS011;39837;47.630;18.822;2022-10-16T02:36:34;5.57;;;5.05;;
53927;SDS011;39837;47.630;18.822;2022-10-16T02:39:19;6.20;;;4.88;;
53927;SDS011;39837;47.630;18.822;2022-10-16T02:42:03;8.73;;;4.38;;
53927;SDS011;39837;47.630;18.822;2022-10-16T02:44:48;6.55;;;5.28;;
53927;SDS011;39837;47.630;18.822;2022-10-16T02:47:32;6.30;;;5.07;;
53927;SDS011;39837;47.630;18.822;2022-10-16T02:50:16;6.03;;;5.43;;
53927;SDS011;39837;47.630;18.822;2022-10-16T02:53:00;7.68;;;5.55;;
53927;SDS011;39837;47.630;18.822;2022-10-16T02:55:44;8.60;;;5.00;;
53927;SDS011;39837;47.630;18.822;2022-10-16T02:58:28;12.32;;;5.10;;
53927;SDS011;39837;47.630;18.822;2022-10-16T03:01:12;5.25;;;4.75;;
53927;SDS011;39837;47.630;18.822;2022-10-16T03:03:58;5.88;;;4.80;;
53927;SDS011;39837;47.630;18.822;2022-10-16T03:06:42;5.45;;;4.60;;
53927;SDS011;39837;47.630;18.822;2022-10-16T03:09:26;22.02;;;5.07;;
53927;SDS011;39837;47.630;18.822;2022-10-16T03:12:09;8.60;;;4.55;;
53927;SDS011;39837;47.630;18.822;2022-10-16T03:14:55;5.65;;;5.15;;
53927;SDS011;39837;47.630;18.822;2022-10-16T03:17:40;8.80;;;5.78;;
53927;SDS011;39837;47.630;18.822;2022-10-16T03:20:24;11.50;;;5.78;;
53927;SDS011;39837;47.630;18.822;2022-10-16T03:23:08;8.13;;;5.07;;
53927;SDS011;39837;47.630;18.822;2022-10-16T03:25:53;8.38;;;5.32;;
53927;SDS011;39837;47.630;18.822;2022-10-16T03:28:37;6.07;;;4.68;;
53927;SDS011;39837;47.630;18.822;2022-10-16T03:31:21;5.80;;;4.97;;
53927;SDS011;39837;47.630;18.822;2022-10-16T03:34:05;5.75;;;4.88;;
53927;SDS011;39837;47.630;18.822;2022-10-16T03:36:50;5.63;;;4.85;;
53927;SDS011;39837;47.630;18.822;2022-10-16T03:39:33;13.60;;;5.78;;
53927;SDS011;39837;47.630;18.822;2022-10-16T03:42:19;6.45;;;4.80;;
53927;SDS011;39837;47.630;18.822;2022-10-16T03:45:04;7.93;;;4.72;;
53927;SDS011;39837;47.630;18.822;2022-10-16T03:47:48;6.00;;;5.10;;
53927;SDS011;39837;47.630;18.822;2022-10-16T03:50:32;5.15;;;4.65;;
53927;SDS011;39837;47.630;18.822;2022-10-16T03:53:16;6.32;;;5.22;;
53927;SDS011;39837;47.630;18.822;2022-10-16T03:56:00;9.27;;;5.03;;
53927;SDS011;39837;47.630;18.822;2022-10-16T03:58:45;9.45;;;6.00;;
53927;SDS011;39837;47.630;18.822;2022-10-16T04:01:29;6.13;;;5.30;;
53927;SDS011;39837;47.630;18.822;2022-10-16T04:04:13;12.90;;;4.72;;
53927;SDS011;39837;47.630;18.822;2022-10-16T04:06:57;6.07;;;5.28;;
53927;SDS011;39837;47.630;18.822;2022-10-16T04:09:41;5.80;;;5.15;;
53927;SDS011;39837;47.630;18.822;2022-10-16T04:12:26;11.43;;;5.93;;
53927;SDS011;39837;47.630;18.822;2022-10-16T04:15:10;5.93;;;5.13;;
53927;SDS011;39837;47.630;18.822;2022-10-16T04:17:55;5.18;;;4.70;;
53927;SDS011;39837;47.630;18.822;2022-10-16T04:20:38;6.20;;;5.10;;
53927;SDS011;39837;47.630;18.822;2022-10-16T04:23:22;10.80;;;5.90;;
53927;SDS011;39837;47.630;18.822;2022-10-16T04:26:07;6.65;;;5.55;;
53927;SDS011;39837;47.630;18.822;2022-10-16T04:28:51;5.78;;;4.47;;
53927;SDS011;39837;47.630;18.822;2022-10-16T04:31:35;7.15;;;6.32;;
53927;SDS011;39837;47.630;18.822;2022-10-16T04:34:19;5.38;;;4.68;;
53927;SDS011;39837;47.630;18.822;2022-10-16T04:37:04;6.43;;;5.82;;
53927;SDS011;39837;47.630;18.822;2022-10-16T04:39:48;16.50;;;5.65;;
53927;SDS011;39837;47.630;18.822;2022-10-16T04:42:32;5.15;;;4.47;;
53927;SDS011;39837;47.630;18.822;2022-10-16T04:45:17;9.13;;;5.50;;
53927;SDS011;39837;47.630;18.822;2022-10-16T04:48:01;9.23;;;5.18;;
53927;SDS011;39837;47.630;18.822;2022-10-16T04:50:45;14.70;;;8.35;;
53927;SDS011;39837;47.630;18.822;2022-10-16T04:53:29;31.10;;;10.13;;
53927;SDS011;39837;47.630;18.822;2022-10-16T04:56:13;16.65;;;8.63;;
53927;SDS011;39837;47.630;18.822;2022-10-16T04:58:58;31.42;;;14.57;;
53927;SDS011;39837;47.630;18.822;2022-10-16T05:01:42;24.17;;;12.05;;
53927;SDS011;39837;47.630;18.822;2022-10-16T05:04:26;42.88;;;17.27;;
53927;SDS011;39837;47.630;18.822;2022-10-16T05:07:10;48.35;;;18.42;;
53927;SDS011;39837;47.630;18.822;2022-10-16T05:09:54;29.45;;;12.02;;
53927;SDS011;39837;47.630;18.822;2022-10-16T05:12:38;19.20;;;6.70;;
53927;SDS011;39837;47.630;18.822;2022-10-16T05:15:22;10.50;;;5.85;;
53927;SDS011;39837;47.630;18.822;2022-10-16T05:18:08;9.45;;;5.70;;
53927;SDS011;39837;47.630;18.822;2022-10-16T05:20:52;11.65;;;6.00;;
53927;SDS011;39837;47.630;18.822;2022-10-16T05:23:36;8.50;;;5.72;;
53927;SDS011;39837;47.630;18.822;2022-10-16T05:26:20;7.43;;;5.43;;
53927;SDS011;39837;47.630;18.822;2022-10-16T05:29:04;5.95;;;5.28;;
53927;SDS011;39837;47.630;18.822;2022-10-16T05:31:52;9.13;;;5.88;;
53927;SDS011;39837;47.630;18.822;2022-10-16T05:34:36;9.10;;;5.13;;
53927;SDS011;39837;47.630;18.822;2022-10-16T05:37:20;10.18;;;5.53;;
53927;SDS011;39837;47.630;18.822;2022-10-16T05:40:04;8.77;;;6.00;;
53927;SDS011;39837;47.630;18.822;2022-10-16T05:42:48;8.10;;;5.75;;
53927;SDS011;39837;47.630;18.822;2022-10-16T05:45:32;5.53;;;4.60;;
53927;SDS011;39837;47.630;18.822;2022-10-16T05:48:16;5.93;;;5.22;;
53927;SDS011;39837;47.630;18.822;2022-10-16T05:51:01;8.68;;;6.57;;
53927;SDS011;39837;47.630;18.822;2022-10-16T05:53:48;5.60;;;5.03;;
53927;SDS011;39837;47.630;18.822;2022-10-16T05:56:32;8.75;;;6.00;;
53927;SDS011;39837;47.630;18.822;2022-10-16T05:59:16;7.60;;;5.85;;
53927;SDS011;39837;47.630;18.822;2022-10-16T06:02:00;8.77;;;5.50;;
53927;SDS011;39837;47.630;18.822;2022-10-16T06:04:43;8.43;;;5.80;;
53927;SDS011;39837;47.630;18.822;2022-10-16T06:07:27;6.75;;;5.70;;
53927;SDS011;39837;47.630;18.822;2022-10-16T06:10:11;5.32;;;4.85;;
53927;SDS011;39837;47.630;18.822;2022-10-16T06:12:55;6.68;;;5.93;;
53927;SDS011;39837;47.630;18.822;2022-10-16T06:15:40;6.28;;;5.18;;
53927;SDS011;39837;47.630;18.822;2022-10-16T06:18:25;11.77;;;5.57;;
53927;SDS011;39837;47.630;18.822;2022-10-16T06:21:11;7.43;;;4.85;;
53927;SDS011;39837;47.630;18.822;2022-10-16T06:23:58;5.18;;;4.75;;
53927;SDS011;39837;47.630;18.822;2022-10-16T06:26:42;6.47;;;4.63;;
53927;SDS011;39837;47.630;18.822;2022-10-16T06:29:26;8.07;;;5.13;;
53927;SDS011;39837;47.630;18.822;2022-10-16T06:32:10;6.13;;;5.25;;
53927;SDS011;39837;47.630;18.822;2022-10-16T06:34:54;7.75;;;4.95;;
53927;SDS011;39837;47.630;18.822;2022-10-16T06:37:38;12.30;;;5.28;;
53927;SDS011;39837;47.630;18.822;2022-10-16T06:40:22;5.80;;;4.32;;
53927;SDS011;39837;47.630;18.822;2022-10-16T06:43:06;6.20;;;4.97;;
53927;SDS011;39837;47.630;18.822;2022-10-16T06:45:51;5.30;;;4.90;;
53927;SDS011;39837;47.630;18.822;2022-10-16T06:48:39;6.90;;;5.00;;
53927;SDS011;39837;47.630;18.822;2022-10-16T06:51:23;4.97;;;3.90;;
53927;SDS011;39837;47.630;18.822;2022-10-16T06:54:08;9.10;;;5.20;;
53927;SDS011;39837;47.630;18.822;2022-10-16T06:56:52;5.65;;;5.05;;
53927;SDS011;39837;47.630;18.822;2022-10-16T06:59:38;8.10;;;4.28;;
53927;SDS011;39837;47.630;18.822;2022-10-16T07:02:22;6.60;;;4.70;;
53927;SDS011;39837;47.630;18.822;2022-10-16T07:05:06;14.38;;;4.70;;
53927;SDS011;39837;47.630;18.822;2022-10-16T07:07:50;5.38;;;4.88;;
53927;SDS011;39837;47.630;18.822;2022-10-16T07:10:34;5.50;;;4.18;;
53927;SDS011;39837;47.630;18.822;2022-10-16T07:13:18;10.45;;;5.72;;
53927;SDS011;39837;47.630;18.822;2022-10-16T07:16:09;5.30;;;4.82;;
53927;SDS011;39837;47.630;18.822;2022-10-16T07:19:02;7.13;;;4.82;;
53927;SDS011;39837;47.630;18.822;2022-10-16T07:21:46;7.13;;;4.95;;
53927;SDS011;39837;47.630;18.822;2022-10-16T07:24:30;8.98;;;5.28;;
53927;SDS011;39837;47.630;18.822;2022-10-16T07:27:14;10.30;;;4.70;;
53927;SDS011;39837;47.630;18.822;2022-10-16T07:30:00;5.57;;;4.60;;
53927;SDS011;39837;47.630;18.822;2022-10-16T07:32:44;7.25;;;4.63;;
53927;SDS011;39837;47.630;18.822;2022-10-16T07:35:28;8.60;;;5.35;;
53927;SDS011;39837;47.630;18.822;2022-10-16T07:38:12;8.65;;;5.18;;
53927;SDS011;39837;47.630;18.822;2022-10-16T07:41:00;4.72;;;4.20;;
53927;SDS011;39837;47.630;18.822;2022-10-16T07:43:49;4.60;;;4.18;;
53927;SDS011;39837;47.630;18.822;2022-10-16T07:46:34;6.40;;;4.22;;
53927;SDS011;39837;47.630;18.822;2022-10-16T07:49:19;8.85;;;4.72;;
53927;SDS011;39837;47.630;18.822;2022-10-16T07:52:03;7.70;;;5.53;;
53927;SDS011;39837;47.630;18.822;2022-10-16T07:54:47;12.73;;;6.50;;
53927;SDS011;39837;47.630;18.822;2022-10-16T07:57:31;11.35;;;5.53;;
53927;SDS011;39837;47.630;18.822;2022-10-16T08:00:15;11.88;;;4.13;;
53927;SDS011;39837;47.630;18.822;2022-10-16T08:02:59;12.93;;;5.85;;
53927;SDS011;39837;47.630;18.822;2022-10-16T08:05:43;5.30;;;4.07;;
53927;SDS011;39837;47.630;18.822;2022-10-16T08:08:28;4.57;;;3.67;;
53927;SDS011;39837;47.630;18.822;2022-10-16T08:11:12;5.15;;;3.65;;
53927;SDS011;39837;47.630;18.822;2022-10-16T08:13:57;6.40;;;4.25;;
53927;SDS011;39837;47.630;18.822;2022-10-16T08:16:41;6.45;;;3.80;;
53927;SDS011;39837;47.630;18.822;2022-10-16T08:19:25;8.00;;;4.40;;
53927;SDS011;39837;47.630;18.822;2022-10-16T08:22:10;8.35;;;4.65;;
53927;SDS011;39837;47.630;18.822;2022-10-16T08:24:54;6.03;;;4.53;;
53927;SDS011;39837;47.630;18.822;2022-10-16T08:27:38;5.60;;;4.18;;
53927;SDS011;39837;47.630;18.822;2022-10-16T08:30:22;4.40;;;3.90;;
53927;SDS011;39837;47.630;18.822;2022-10-16T08:33:07;4.85;;;3.95;;
53927;SDS011;39837;47.630;18.822;2022-10-16T08:35:51;3.80;;;3.42;;
53927;SDS011;39837;47.630;18.822;2022-10-16T08:38:37;9.02;;;4.95;;
53927;SDS011;39837;47.630;18.822;2022-10-16T08:41:23;10.85;;;5.78;;
53927;SDS011;39837;47.630;18.822;2022-10-16T08:53:37;4.35;;;3.80;;
53927;SDS011;39837;47.630;18.822;2022-10-16T08:56:26;7.25;;;2.83;;
53927;SDS011;39837;47.630;18.822;2022-10-16T08:59:10;5.90;;;3.20;;
53927;SDS011;39837;47.630;18.822;2022-10-16T09:01:55;2.45;;;2.33;;
53927;SDS011;39837;47.630;18.822;2022-10-16T09:04:57;2.58;;;2.40;;
53927;SDS011;39837;47.630;18.822;2022-10-16T09:11:06;5.40;;;4.07;;
53927;SDS011;39837;47.630;18.822;2022-10-16T09:17:14;3.83;;;3.38;;
53927;SDS011;39837;47.630;18.822;2022-10-16T09:20:13;7.22;;;3.78;;
53927;SDS011;39837;47.630;18.822;2022-10-16T09:25:57;3.63;;;3.30;;
53927;SDS011;39837;47.630;18.822;2022-10-16T09:28:42;9.95;;;4.28;;
53927;SDS011;39837;47.630;18.822;2022-10-16T09:31:25;2.75;;;2.55;;
53927;SDS011;39837;47.630;18.822;2022-10-16T09:34:17;3.80;;;3.05;;
53927;SDS011;39837;47.630;18.822;2022-10-16T09:37:08;5.07;;;2.92;;
53927;SDS011;39837;47.630;18.822;2022-10-16T09:39:54;2.58;;;2.45;;
53927;SDS011;39837;47.630;18.822;2022-10-16T09:42:38;3.15;;;2.85;;
53927;SDS011;39837;47.630;18.822;2022-10-16T09:45:23;5.97;;;2.90;;
53927;SDS011;39837;47.630;18.822;2022-10-16T09:48:10;3.15;;;2.88;;
53927;SDS011;39837;47.630;18.822;2022-10-16T09:50:59;5.32;;;3.50;;
53927;SDS011;39837;47.630;18.822;2022-10-16T09:53:45;3.47;;;3.17;;
53927;SDS011;39837;47.630;18.822;2022-10-16T09:56:31;3.63;;;3.28;;
53927;SDS011;39837;47.630;18.822;2022-10-16T09:59:17;3.70;;;2.95;;
53927;SDS011;39837;47.630;18.822;2022-10-16T10:04:48;2.92;;;2.58;;
53927;SDS011;39837;47.630;18.822;2022-10-16T10:07:39;5.25;;;2.97;;
53927;SDS011;39837;47.630;18.822;2022-10-16T10:10:27;3.33;;;2.95;;
53927;SDS011;39837;47.630;18.822;2022-10-16T10:13:19;6.13;;;3.38;;
53927;SDS011;39837;47.630;18.822;2022-10-16T10:16:04;4.35;;;2.92;;
53927;SDS011;39837;47.630;18.822;2022-10-16T10:18:57;3.90;;;3.30;;
53927;SDS011;39837;47.630;18.822;2022-10-16T10:21:42;4.70;;;3.25;;
53927;SDS011;39837;47.630;18.822;2022-10-16T10:24:26;4.40;;;4.00;;
53927;SDS011;39837;47.630;18.822;2022-10-16T10:27:14;4.55;;;2.90;;
53927;SDS011;39837;47.630;18.822;2022-10-16T10:30:06;3.70;;;3.35;;
53927;SDS011;39837;47.630;18.822;2022-10-16T10:38:40;4.90;;;3.72;;
53927;SDS011;39837;47.630;18.822;2022-10-16T10:48:10;2.50;;;2.20;;
53927;SDS011;39837;47.630;18.822;2022-10-16T10:51:08;6.90;;;4.43;;
53927;SDS011;39837;47.630;18.822;2022-10-16T11:03:58;6.00;;;2.92;;
53927;SDS011;39837;47.630;18.822;2022-10-16T11:09:51;6.13;;;3.22;;
53927;SDS011;39837;47.630;18.822;2022-10-16T11:12:48;4.60;;;2.65;;
53927;SDS011;39837;47.630;18.822;2022-10-16T11:15:37;2.47;;;2.30;;
53927;SDS011;39837;47.630;18.822;2022-10-16T11:18:29;3.75;;;2.92;;
53927;SDS011;39837;47.630;18.822;2022-10-16T11:21:16;2.80;;;2.60;;
53927;SDS011;39837;47.630;18.822;2022-10-16T11:24:04;3.70;;;2.83;;
53927;SDS011;39837;47.630;18.822;2022-10-16T11:26:54;7.50;;;2.83;;
53927;SDS011;39837;47.630;18.822;2022-10-16T11:29:45;3.33;;;3.03;;
53927;SDS011;39837;47.630;18.822;2022-10-16T11:32:34;3.72;;;3.20;;
53927;SDS011;39837;47.630;18.822;2022-10-16T11:35:38;2.97;;;2.65;;
53927;SDS011;39837;47.630;18.822;2022-10-16T11:38:34;5.30;;;2.63;;
53927;SDS011;39837;47.630;18.822;2022-10-16T11:50:37;2.78;;;2.67;;
53927;SDS011;39837;47.630;18.822;2022-10-16T11:56:13;5.40;;;3.42;;
53927;SDS011;39837;47.630;18.822;2022-10-16T11:59:01;2.45;;;2.25;;
53927;SDS011;39837;47.630;18.822;2022-10-16T12:01:59;5.57;;;3.55;;
53927;SDS011;39837;47.630;18.822;2022-10-16T12:11:20;3.08;;;2.50;;
53927;SDS011;39837;47.630;18.822;2022-10-16T12:19:59;2.63;;;2.42;;
53927;SDS011;39837;47.630;18.822;2022-10-16T12:23:16;6.90;;;3.58;;
53927;SDS011;39837;47.630;18.822;2022-10-16T12:26:04;3.38;;;3.08;;
53927;SDS011;39837;47.630;18.822;2022-10-16T12:28:48;2.17;;;1.83;;
53927;SDS011;39837;47.630;18.822;2022-10-16T12:31:39;2.28;;;2.17;;
53927;SDS011;39837;47.630;18.822;2022-10-16T12:34:35;2.47;;;2.28;;
53927;SDS011;39837;47.630;18.822;2022-10-16T12:37:30;1.95;;;1.85;;
53927;SDS011;39837;47.630;18.822;2022-10-16T12:40:29;2.10;;;2.00;;
53927;SDS011;39837;47.630;18.822;2022-10-16T12:51:57;6.53;;;2.13;;
53927;SDS011;39837;47.630;18.822;2022-10-16T12:54:41;2.40;;;2.28;;
53927;SDS011;39837;47.630;18.822;2022-10-16T13:01:28;2.25;;;2.15;;
53927;SDS011;39837;47.630;18.822;2022-10-16T13:04:27;3.55;;;2.10;;
53927;SDS011;39837;47.630;18.822;2022-10-16T13:19:35;3.20;;;2.53;;
53927;SDS011;39837;47.630;18.822;2022-10-16T13:22:27;2.33;;;1.92;;
53927;SDS011;39837;47.630;18.822;2022-10-16T13:25:46;2.13;;;2.03;;
53927;SDS011;39837;47.630;18.822;2022-10-16T13:28:33;2.47;;;2.28;;
53927;SDS011;39837;47.630;18.822;2022-10-16T13:31:20;2.35;;;2.25;;
53927;SDS011;39837;47.630;18.822;2022-10-16T13:34:06;2.67;;;2.22;;
53927;SDS011;39837;47.630;18.822;2022-10-16T13:36:56;2.00;;;1.90;;
53927;SDS011;39837;47.630;18.822;2022-10-16T13:39:40;3.90;;;2.42;;
53927;SDS011;39837;47.630;18.822;2022-10-16T13:42:25;3.92;;;2.20;;
53927;SDS011;39837;47.630;18.822;2022-10-16T13:45:17;2.40;;;2.15;;
53927;SDS011;39837;47.630;18.822;2022-10-16T13:48:03;3.47;;;2.40;;
53927;SDS011;39837;47.630;18.822;2022-10-16T13:50:58;3.63;;;3.22;;
53927;SDS011;39837;47.630;18.822;2022-10-16T13:53:48;2.40;;;2.28;;
53927;SDS011;39837;47.630;18.822;2022-10-16T13:56:32;3.10;;;2.58;;
53927;SDS011;39837;47.630;18.822;2022-10-16T13:59:24;2.17;;;2.08;;
53927;SDS011;39837;47.630;18.822;2022-10-16T14:05:25;6.30;;;3.05;;
53927;SDS011;39837;47.630;18.822;2022-10-16T14:08:09;3.25;;;2.97;;
53927;SDS011;39837;47.630;18.822;2022-10-16T14:10:55;9.02;;;2.45;;
53927;SDS011;39837;47.630;18.822;2022-10-16T14:13:44;2.67;;;2.47;;
53927;SDS011;39837;47.630;18.822;2022-10-16T14:16:30;5.35;;;3.00;;
53927;SDS011;39837;47.630;18.822;2022-10-16T14:19:24;4.27;;;3.23;;
53927;SDS011;39837;47.630;18.822;2022-10-16T14:22:21;6.22;;;3.17;;
53927;SDS011;39837;47.630;18.822;2022-10-16T14:28:04;2.95;;;2.60;;
53927;SDS011;39837;47.630;18.822;2022-10-16T14:30:59;4.32;;;2.97;;
53927;SDS011;39837;47.630;18.822;2022-10-16T14:33:44;3.60;;;2.33;;
53927;SDS011;39837;47.630;18.822;2022-10-16T14:36:28;2.70;;;2.15;;
53927;SDS011;39837;47.630;18.822;2022-10-16T14:39:19;3.67;;;2.63;;
53927;SDS011;39837;47.630;18.822;2022-10-16T14:42:04;3.00;;;2.78;;
53927;SDS011;39837;47.630;18.822;2022-10-16T14:44:58;7.40;;;3.33;;
53927;SDS011;39837;47.630;18.822;2022-10-16T14:47:47;8.50;;;3.88;;
53927;SDS011;39837;47.630;18.822;2022-10-16T14:50:34;3.58;;;3.20;;
53927;SDS011;39837;47.630;18.822;2022-10-16T14:53:18;3.80;;;2.72;;
53927;SDS011;39837;47.630;18.822;2022-10-16T14:56:07;2.80;;;2.38;;
53927;SDS011;39837;47.630;18.822;2022-10-16T14:58:51;2.47;;;2.28;;
53927;SDS011;39837;47.630;18.822;2022-10-16T15:01:36;3.30;;;2.78;;
53927;SDS011;39837;47.630;18.822;2022-10-16T15:04:20;2.55;;;2.35;;
53927;SDS011;39837;47.630;18.822;2022-10-16T15:07:04;2.60;;;2.40;;
53927;SDS011;39837;47.630;18.822;2022-10-16T15:09:48;2.55;;;2.30;;
53927;SDS011;39837;47.630;18.822;2022-10-16T15:12:32;7.00;;;3.15;;
53927;SDS011;39837;47.630;18.822;2022-10-16T15:18:06;4.20;;;2.83;;
53927;SDS011;39837;47.630;18.822;2022-10-16T15:20:50;3.47;;;2.88;;
53927;SDS011;39837;47.630;18.822;2022-10-16T15:23:34;6.43;;;2.78;;
53927;SDS011;39837;47.630;18.822;2022-10-16T15:26:18;2.97;;;2.70;;
53927;SDS011;39837;47.630;18.822;2022-10-16T15:29:02;3.47;;;2.80;;
53927;SDS011;39837;47.630;18.822;2022-10-16T15:31:46;2.92;;;2.72;;
53927;SDS011;39837;47.630;18.822;2022-10-16T15:34:31;5.63;;;3.17;;
53927;SDS011;39837;47.630;18.822;2022-10-16T15:37:15;3.40;;;2.95;;
53927;SDS011;39837;47.630;18.822;2022-10-16T15:39:59;3.20;;;2.67;;
53927;SDS011;39837;47.630;18.822;2022-10-16T15:42:43;5.43;;;2.67;;
53927;SDS011;39837;47.630;18.822;2022-10-16T15:45:27;4.43;;;2.92;;
53927;SDS011;39837;47.630;18.822;2022-10-16T15:48:11;5.80;;;3.10;;
53927;SDS011;39837;47.630;18.822;2022-10-16T15:50:56;2.85;;;2.65;;
53927;SDS011;39837;47.630;18.822;2022-10-16T15:53:41;3.60;;;3.13;;
53927;SDS011;39837;47.630;18.822;2022-10-16T15:56:25;3.50;;;3.20;;
53927;SDS011;39837;47.630;18.822;2022-10-16T15:59:10;2.67;;;2.58;;
53927;SDS011;39837;47.630;18.822;2022-10-16T16:01:54;3.17;;;2.88;;
53927;SDS011;39837;47.630;18.822;2022-10-16T16:04:38;3.05;;;2.85;;
53927;SDS011;39837;47.630;18.822;2022-10-16T16:07:22;7.10;;;2.95;;
53927;SDS011;39837;47.630;18.822;2022-10-16T16:10:07;3.38;;;3.08;;
53927;SDS011;39837;47.630;18.822;2022-10-16T16:12:52;3.97;;;3.17;;
53927;SDS011;39837;47.630;18.822;2022-10-16T16:15:38;3.28;;;3.05;;
53927;SDS011;39837;47.630;18.822;2022-10-16T16:18:23;3.47;;;3.17;;
53927;SDS011;39837;47.630;18.822;2022-10-16T16:21:10;3.05;;;2.75;;
53927;SDS011;39837;47.630;18.822;2022-10-16T16:23:55;7.00;;;3.47;;
53927;SDS011;39837;47.630;18.822;2022-10-16T16:26:39;4.15;;;3.08;;
53927;SDS011;39837;47.630;18.822;2022-10-16T16:29:26;3.55;;;3.25;;
53927;SDS011;39837;47.630;18.822;2022-10-16T16:32:10;4.13;;;3.33;;
53927;SDS011;39837;47.630;18.822;2022-10-16T16:34:54;6.78;;;3.40;;
53927;SDS011;39837;47.630;18.822;2022-10-16T16:37:38;3.75;;;3.45;;
53927;SDS011;39837;47.630;18.822;2022-10-16T16:40:22;3.63;;;3.05;;
53927;SDS011;39837;47.630;18.822;2022-10-16T16:43:06;3.60;;;3.30;;
53927;SDS011;39837;47.630;18.822;2022-10-16T16:45:50;4.30;;;3.13;;
53927;SDS011;39837;47.630;18.822;2022-10-16T16:48:34;5.63;;;3.95;;
53927;SDS011;39837;47.630;18.822;2022-10-16T16:51:18;5.65;;;3.65;;
53927;SDS011;39837;47.630;18.822;2022-10-16T16:54:03;4.90;;;3.85;;
53927;SDS011;39837;47.630;18.822;2022-10-16T16:56:47;4.93;;;4.40;;
53927;SDS011;39837;47.630;18.822;2022-10-16T16:59:31;5.50;;;4.45;;
53927;SDS011;39837;47.630;18.822;2022-10-16T17:02:18;5.38;;;4.88;;
53927;SDS011;39837;47.630;18.822;2022-10-16T17:05:02;5.47;;;4.65;;
53927;SDS011;39837;47.630;18.822;2022-10-16T17:07:46;4.38;;;3.97;;
53927;SDS011;39837;47.630;18.822;2022-10-16T17:10:30;5.22;;;4.72;;
53927;SDS011;39837;47.630;18.822;2022-10-16T17:13:14;5.05;;;3.80;;
53927;SDS011;39837;47.630;18.822;2022-10-16T17:15:59;4.15;;;3.80;;
53927;SDS011;39837;47.630;18.822;2022-10-16T17:18:42;6.28;;;4.38;;
53927;SDS011;39837;47.630;18.822;2022-10-16T17:21:26;4.90;;;4.40;;
53927;SDS011;39837;47.630;18.822;2022-10-16T17:24:13;4.32;;;3.78;;
53927;SDS011;39837;47.630;18.822;2022-10-16T17:26:57;3.92;;;3.72;;
53927;SDS011;39837;47.630;18.822;2022-10-16T17:29:41;7.80;;;3.88;;
53927;SDS011;39837;47.630;18.822;2022-10-16T17:32:25;16.33;;;5.45;;
53927;SDS011;39837;47.630;18.822;2022-10-16T17:35:09;7.50;;;5.03;;
53927;SDS011;39837;47.630;18.822;2022-10-16T17:37:54;7.35;;;4.90;;
53927;SDS011;39837;47.630;18.822;2022-10-16T17:40:38;5.25;;;4.68;;
53927;SDS011;39837;47.630;18.822;2022-10-16T17:43:22;11.02;;;5.20;;
53927;SDS011;39837;47.630;18.822;2022-10-16T17:46:07;20.10;;;11.68;;
53927;SDS011;39837;47.630;18.822;2022-10-16T17:48:52;29.92;;;13.95;;
53927;SDS011;39837;47.630;18.822;2022-10-16T17:51:37;23.85;;;11.48;;
53927;SDS011;39837;47.630;18.822;2022-10-16T17:54:22;11.57;;;6.57;;
53927;SDS011;39837;47.630;18.822;2022-10-16T17:57:05;4.88;;;4.40;;
53927;SDS011;39837;47.630;18.822;2022-10-16T17:59:49;4.63;;;4.20;;
53927;SDS011;39837;47.630;18.822;2022-10-16T18:02:33;4.35;;;4.05;;
53927;SDS011;39837;47.630;18.822;2022-10-16T18:05:18;3.97;;;3.67;;
53927;SDS011;39837;47.630;18.822;2022-10-16T18:08:02;7.05;;;3.80;;
53927;SDS011;39837;47.630;18.822;2022-10-16T18:10:46;4.32;;;3.90;;
53927;SDS011;39837;47.630;18.822;2022-10-16T18:13:33;4.25;;;3.90;;
53927;SDS011;39837;47.630;18.822;2022-10-16T18:16:17;4.60;;;4.18;;
53927;SDS011;39837;47.630;18.822;2022-10-16T18:19:02;3.53;;;3.33;;
53927;SDS011;39837;47.630;18.822;2022-10-16T18:21:46;5.75;;;4.25;;
53927;SDS011;39837;47.630;18.822;2022-10-16T18:24:32;10.35;;;4.50;;
53927;SDS011;39837;47.630;18.822;2022-10-16T18:27:15;4.50;;;4.07;;